Terminal Aerodrome Forecast
Issued by NWS Sioux Falls, SD

Home | Current Version | Previous Version | Graphics & Text | Print | Product List | Glossary On
Versions: 1 2 3 4 5 6 7 8 9 10 11 12 13 14 15 16 17 18 19 20 21 22
000
FTUS43 KFSD 260521
TAFSUX
TAF
KSUX 260521Z 2606/2706 36005KT P6SM FEW250
     FM261400 06007KT P6SM SCT120
     FM261600 07010KT P6SM BKN100
     FM261800 09014G21KT P6SM BKN060
     FM270000 09017G24KT P6SM SHRA BKN040
     FM270200 09017G24KT P6SM SHRA OVC025=

USA.gov is the U.S. government's official web portal to all federal, state and local government web resources and services.